sensor_id;sensor_type;location;lat;lon;timestamp;pressure;altitude;pressure_sealevel;temperature;humidity
38400;BME280;24180;42.676;23.320;2023-03-03T00:01:12;94752.69;;;4.17;100.00
38400;BME280;24180;42.676;23.320;2023-03-03T00:03:38;94775.38;;;4.34;100.00
38400;BME280;24180;42.676;23.320;2023-03-03T00:06:04;94755.94;;;4.19;100.00
38400;BME280;24180;42.676;23.320;2023-03-03T00:08:30;94770.06;;;4.37;100.00
38400;BME280;24180;42.676;23.320;2023-03-03T00:10:57;94761.47;;;4.25;100.00
38400;BME280;24180;42.676;23.320;2023-03-03T00:13:24;94750.53;;;4.11;100.00
38400;BME280;24180;42.676;23.320;2023-03-03T00:15:51;94720.94;;;3.94;100.00
38400;BME280;24180;42.676;23.320;2023-03-03T00:18:23;94729.13;;;4.12;100.00
38400;BME280;24180;42.676;23.320;2023-03-03T00:20:58;94747.72;;;4.27;100.00
38400;BME280;24180;42.676;23.320;2023-03-03T00:23:36;94691.47;;;3.76;100.00
38400;BME280;24180;42.676;23.320;2023-03-03T00:26:36;94743.38;;;4.03;100.00
38400;BME280;24180;42.676;23.320;2023-03-03T00:29:01;94758.00;;;4.14;100.00
38400;BME280;24180;42.676;23.320;2023-03-03T00:31:34;94728.31;;;3.86;100.00
38400;BME280;24180;42.676;23.320;2023-03-03T00:34:23;94756.56;;;4.10;100.00
38400;BME280;24180;42.676;23.320;2023-03-03T00:36:52;94753.28;;;4.20;100.00
38400;BME280;24180;42.676;23.320;2023-03-03T00:39:34;94724.84;;;4.00;100.00
38400;BME280;24180;42.676;23.320;2023-03-03T00:42:00;94722.25;;;4.00;100.00
38400;BME280;24180;42.676;23.320;2023-03-03T00:44:56;94739.34;;;4.24;100.00
38400;BME280;24180;42.676;23.320;2023-03-03T00:47:34;94744.88;;;4.06;100.00
38400;BME280;24180;42.676;23.320;2023-03-03T00:52:34;94736.28;;;4.19;100.00
38400;BME280;24180;42.676;23.320;2023-03-03T00:55:00;94720.69;;;4.10;100.00
38400;BME280;24180;42.676;23.320;2023-03-03T00:57:26;94681.19;;;3.89;100.00
38400;BME280;24180;42.676;23.320;2023-03-03T00:59:51;94698.16;;;4.02;100.00
38400;BME280;24180;42.676;23.320;2023-03-03T01:02:17;94703.66;;;4.21;100.00
38400;BME280;24180;42.676;23.320;2023-03-03T01:04:45;94708.59;;;4.24;100.00
38400;BME280;24180;42.676;23.320;2023-03-03T01:07:13;94704.78;;;4.17;100.00
38400;BME280;24180;42.676;23.320;2023-03-03T01:09:39;94675.53;;;4.09;100.00
38400;BME280;24180;42.676;23.320;2023-03-03T01:12:04;94686.06;;;4.17;100.00
38400;BME280;24180;42.676;23.320;2023-03-03T01:14:30;94679.69;;;4.10;100.00
38400;BME280;24180;42.676;23.320;2023-03-03T01:16:56;94675.81;;;4.17;100.00
38400;BME280;24180;42.676;23.320;2023-03-03T01:19:21;94680.81;;;4.18;100.00
38400;BME280;24180;42.676;23.320;2023-03-03T01:21:47;94702.78;;;4.34;100.00
38400;BME280;24180;42.676;23.320;2023-03-03T01:24:12;94675.72;;;4.06;100.00
38400;BME280;24180;42.676;23.320;2023-03-03T01:26:37;94715.16;;;4.16;100.00
38400;BME280;24180;42.676;23.320;2023-03-03T01:29:03;94681.66;;;4.06;100.00
38400;BME280;24180;42.676;23.320;2023-03-03T01:31:28;94699.28;;;4.11;100.00
38400;BME280;24180;42.676;23.320;2023-03-03T01:33:54;94689.31;;;4.19;100.00
38400;BME280;24180;42.676;23.320;2023-03-03T01:36:26;94665.00;;;4.01;100.00
38400;BME280;24180;42.676;23.320;2023-03-03T01:38:52;94674.38;;;4.13;100.00
38400;BME280;24180;42.676;23.320;2023-03-03T01:41:18;94695.78;;;4.24;100.00
38400;BME280;24180;42.676;23.320;2023-03-03T01:43:45;94660.06;;;3.98;100.00
38400;BME280;24180;42.676;23.320;2023-03-03T01:48:53;94617.72;;;3.81;100.00
38400;BME280;24180;42.676;23.320;2023-03-03T01:51:24;94700.69;;;4.28;100.00
38400;BME280;24180;42.676;23.320;2023-03-03T01:53:52;94670.06;;;4.13;100.00
38400;BME280;24180;42.676;23.320;2023-03-03T01:56:19;94660.94;;;4.09;100.00
38400;BME280;24180;42.676;23.320;2023-03-03T01:58:49;94666.56;;;4.14;100.00
38400;BME280;24180;42.676;23.320;2023-03-03T02:01:21;94663.78;;;4.17;100.00
38400;BME280;24180;42.676;23.320;2023-03-03T02:03:48;94670.97;;;4.25;100.00
38400;BME280;24180;42.676;23.320;2023-03-03T02:06:20;94684.75;;;4.35;100.00
38400;BME280;24180;42.676;23.320;2023-03-03T02:08:58;94678.84;;;4.22;100.00
38400;BME280;24180;42.676;23.320;2023-03-03T02:11:24;94670.28;;;4.10;100.00
38400;BME280;24180;42.676;23.320;2023-03-03T02:13:51;94687.03;;;4.27;100.00
38400;BME280;24180;42.676;23.320;2023-03-03T02:16:17;94686.53;;;4.22;100.00
38400;BME280;24180;42.676;23.320;2023-03-03T02:18:43;94679.78;;;4.21;100.00
38400;BME280;24180;42.676;23.320;2023-03-03T02:21:11;94699.94;;;4.25;100.00
38400;BME280;24180;42.676;23.320;2023-03-03T02:28:32;94690.53;;;4.26;100.00
38400;BME280;24180;42.676;23.320;2023-03-03T02:30:59;94695.78;;;4.24;100.00
38400;BME280;24180;42.676;23.320;2023-03-03T02:33:25;94660.53;;;4.15;100.00
38400;BME280;24180;42.676;23.320;2023-03-03T02:35:51;94680.28;;;4.26;100.00
38400;BME280;24180;42.676;23.320;2023-03-03T02:43:47;94671.59;;;4.16;100.00
38400;BME280;24180;42.676;23.320;2023-03-03T02:46:16;94691.03;;;4.31;100.00
38400;BME280;24180;42.676;23.320;2023-03-03T02:48:41;94665.34;;;4.20;100.00
38400;BME280;24180;42.676;23.320;2023-03-03T02:51:07;94668.59;;;4.22;100.00
38400;BME280;24180;42.676;23.320;2023-03-03T02:53:32;94663.69;;;4.19;100.00
38400;BME280;24180;42.676;23.320;2023-03-03T02:55:58;94689.19;;;4.33;100.00
38400;BME280;24180;42.676;23.320;2023-03-03T02:58:23;94682.91;;;4.37;100.00
38400;BME280;24180;42.676;23.320;2023-03-03T03:00:48;94685.25;;;4.40;100.00
38400;BME280;24180;42.676;23.320;2023-03-03T03:03:14;94673.69;;;4.35;100.00
38400;BME280;24180;42.676;23.320;2023-03-03T03:05:40;94679.41;;;4.38;100.00
38400;BME280;24180;42.676;23.320;2023-03-03T03:08:05;94677.50;;;4.29;100.00
38400;BME280;24180;42.676;23.320;2023-03-03T03:10:30;94683.84;;;4.36;100.00
38400;BME280;24180;42.676;23.320;2023-03-03T03:12:56;94679.00;;;4.44;100.00
38400;BME280;24180;42.676;23.320;2023-03-03T03:15:21;94680.00;;;4.42;100.00
38400;BME280;24180;42.676;23.320;2023-03-03T03:17:47;94673.38;;;4.39;100.00
38400;BME280;24180;42.676;23.320;2023-03-03T03:20:12;94673.13;;;4.42;100.00
38400;BME280;24180;42.676;23.320;2023-03-03T03:22:38;94677.56;;;4.40;100.00
38400;BME280;24180;42.676;23.320;2023-03-03T03:25:04;94676.50;;;4.19;100.00
38400;BME280;24180;42.676;23.320;2023-03-03T03:27:29;94645.47;;;4.11;100.00
38400;BME280;24180;42.676;23.320;2023-03-03T03:29:54;94657.75;;;4.18;100.00
38400;BME280;24180;42.676;23.320;2023-03-03T03:32:20;94675.03;;;4.28;100.00
38400;BME280;24180;42.676;23.320;2023-03-03T03:34:45;94647.22;;;4.10;100.00
38400;BME280;24180;42.676;23.320;2023-03-03T03:37:11;94643.84;;;4.10;100.00
38400;BME280;24180;42.676;23.320;2023-03-03T03:39:36;94638.28;;;4.16;100.00
38400;BME280;24180;42.676;23.320;2023-03-03T03:42:02;94585.47;;;3.90;100.00
38400;BME280;24180;42.676;23.320;2023-03-03T03:44:27;94650.75;;;4.33;100.00
38400;BME280;24180;42.676;23.320;2023-03-03T03:46:53;94656.22;;;4.16;100.00
38400;BME280;24180;42.676;23.320;2023-03-03T03:49:18;94631.56;;;4.02;100.00
38400;BME280;24180;42.676;23.320;2023-03-03T03:51:44;94621.09;;;4.05;100.00
38400;BME280;24180;42.676;23.320;2023-03-03T03:54:09;94639.22;;;4.15;100.00
38400;BME280;24180;42.676;23.320;2023-03-03T03:56:34;94651.16;;;4.27;100.00
38400;BME280;24180;42.676;23.320;2023-03-03T03:59:00;94651.59;;;4.21;100.00
38400;BME280;24180;42.676;23.320;2023-03-03T04:01:25;94643.41;;;4.16;100.00
38400;BME280;24180;42.676;23.320;2023-03-03T04:03:51;94638.97;;;4.18;100.00
38400;BME280;24180;42.676;23.320;2023-03-03T04:06:17;94652.47;;;4.09;100.00
38400;BME280;24180;42.676;23.320;2023-03-03T04:08:42;94619.38;;;3.93;100.00
38400;BME280;24180;42.676;23.320;2023-03-03T04:11:07;94605.78;;;3.93;100.00
38400;BME280;24180;42.676;23.320;2023-03-03T04:13:33;94587.59;;;3.72;100.00
38400;BME280;24180;42.676;23.320;2023-03-03T04:16:00;94642.22;;;4.09;100.00
38400;BME280;24180;42.676;23.320;2023-03-03T04:18:26;94634.03;;;4.04;100.00
38400;BME280;24180;42.676;23.320;2023-03-03T04:20:52;94608.06;;;3.85;100.00
38400;BME280;24180;42.676;23.320;2023-03-03T04:23:19;94615.69;;;3.97;100.00
38400;BME280;24180;42.676;23.320;2023-03-03T04:25:48;94632.88;;;4.08;100.00
38400;BME280;24180;42.676;23.320;2023-03-03T04:28:14;94630.31;;;4.08;100.00
38400;BME280;24180;42.676;23.320;2023-03-03T04:30:40;94635.22;;;4.11;100.00
38400;BME280;24180;42.676;23.320;2023-03-03T04:33:06;94611.09;;;3.90;100.00
38400;BME280;24180;42.676;23.320;2023-03-03T04:35:31;94602.50;;;3.91;100.00
38400;BME280;24180;42.676;23.320;2023-03-03T04:37:56;94625.66;;;3.89;100.00
38400;BME280;24180;42.676;23.320;2023-03-03T04:40:22;94628.72;;;3.94;100.00
38400;BME280;24180;42.676;23.320;2023-03-03T04:42:47;94611.53;;;3.84;100.00
38400;BME280;24180;42.676;23.320;2023-03-03T04:45:13;94634.94;;;4.03;100.00
38400;BME280;24180;42.676;23.320;2023-03-03T04:47:38;94629.31;;;3.98;100.00
38400;BME280;24180;42.676;23.320;2023-03-03T04:50:04;94637.72;;;4.00;100.00
38400;BME280;24180;42.676;23.320;2023-03-03T04:52:30;94619.72;;;3.89;100.00
38400;BME280;24180;42.676;23.320;2023-03-03T04:54:55;94619.72;;;3.89;100.00
38400;BME280;24180;42.676;23.320;2023-03-03T04:57:21;94632.53;;;3.89;100.00
38400;BME280;24180;42.676;23.320;2023-03-03T04:59:46;94631.41;;;3.93;100.00
38400;BME280;24180;42.676;23.320;2023-03-03T05:02:12;94638.56;;;4.00;100.00
38400;BME280;24180;42.676;23.320;2023-03-03T05:04:37;94622.78;;;3.94;100.00
38400;BME280;24180;42.676;23.320;2023-03-03T05:07:03;94639.38;;;4.01;100.00
38400;BME280;24180;42.676;23.320;2023-03-03T05:09:29;94608.88;;;3.85;100.00
38400;BME280;24180;42.676;23.320;2023-03-03T05:11:54;94630.88;;;4.00;100.00
38400;BME280;24180;42.676;23.320;2023-03-03T05:14:20;94610.50;;;3.86;100.00
38400;BME280;24180;42.676;23.320;2023-03-03T05:16:45;94624.09;;;3.99;100.00
38400;BME280;24180;42.676;23.320;2023-03-03T05:19:11;94635.22;;;4.11;100.00
38400;BME280;24180;42.676;23.320;2023-03-03T05:21:36;94629.53;;;3.95;100.00
38400;BME280;24180;42.676;23.320;2023-03-03T05:24:07;94614.59;;;3.89;100.00
38400;BME280;24180;42.676;23.320;2023-03-03T05:26:33;94613.84;;;3.99;100.00
38400;BME280;24180;42.676;23.320;2023-03-03T05:28:59;94636.66;;;4.15;100.00
38400;BME280;24180;42.676;23.320;2023-03-03T05:31:24;94618.88;;;4.01;100.00
38400;BME280;24180;42.676;23.320;2023-03-03T05:33:51;94634.59;;;4.20;100.00
38400;BME280;24180;42.676;23.320;2023-03-03T05:36:17;94620.56;;;4.13;100.00
38400;BME280;24180;42.676;23.320;2023-03-03T05:38:42;94607.31;;;4.19;100.00
38400;BME280;24180;42.676;23.320;2023-03-03T05:41:08;94613.25;;;4.19;100.00
38400;BME280;24180;42.676;23.320;2023-03-03T05:43:33;94643.75;;;4.35;100.00
38400;BME280;24180;42.676;23.320;2023-03-03T05:45:59;94630.44;;;4.30;100.00
38400;BME280;24180;42.676;23.320;2023-03-03T05:48:25;94642.09;;;4.34;100.00
38400;BME280;24180;42.676;23.320;2023-03-03T05:50:51;94636.81;;;4.48;100.00
38400;BME280;24180;42.676;23.320;2023-03-03T05:53:16;94635.09;;;4.49;100.00
38400;BME280;24180;42.676;23.320;2023-03-03T05:55:42;94621.88;;;4.42;100.00
38400;BME280;24180;42.676;23.320;2023-03-03T05:58:07;94602.19;;;4.19;100.00
38400;BME280;24180;42.676;23.320;2023-03-03T06:00:33;94624.22;;;4.45;100.00
38400;BME280;24180;42.676;23.320;2023-03-03T06:02:58;94608.31;;;4.29;100.00
38400;BME280;24180;42.676;23.320;2023-03-03T06:05:24;94643.38;;;4.52;100.00
38400;BME280;24180;42.676;23.320;2023-03-03T06:07:49;94621.59;;;4.34;100.00
38400;BME280;24180;42.676;23.320;2023-03-03T06:10:15;94582.84;;;4.15;100.00
38400;BME280;24180;42.676;23.320;2023-03-03T06:12:41;94640.13;;;4.61;100.00
38400;BME280;24180;42.676;23.320;2023-03-03T06:15:07;94638.50;;;4.60;100.00
38400;BME280;24180;42.676;23.320;2023-03-03T06:17:33;94650.19;;;4.64;100.00
38400;BME280;24180;42.676;23.320;2023-03-03T06:19:58;94660.56;;;4.74;100.00
38400;BME280;24180;42.676;23.320;2023-03-03T06:22:24;94649.50;;;4.73;100.00
38400;BME280;24180;42.676;23.320;2023-03-03T06:24:49;94648.03;;;4.58;100.00
38400;BME280;24180;42.676;23.320;2023-03-03T06:27:17;94642.69;;;4.61;100.00
38400;BME280;24180;42.676;23.320;2023-03-03T06:29:42;94647.94;;;4.60;100.00
38400;BME280;24180;42.676;23.320;2023-03-03T06:32:07;94658.78;;;4.63;100.00
38400;BME280;24180;42.676;23.320;2023-03-03T06:34:33;94637.69;;;4.60;100.00
38400;BME280;24180;42.676;23.320;2023-03-03T06:36:58;94634.78;;;4.64;100.00
38400;BME280;24180;42.676;23.320;2023-03-03T06:39:24;94632.81;;;4.68;100.00
38400;BME280;24180;42.676;23.320;2023-03-03T06:41:49;94659.84;;;4.96;100.00
38400;BME280;24180;42.676;23.320;2023-03-03T06:44:15;94657.03;;;4.88;100.00
38400;BME280;24180;42.676;23.320;2023-03-03T06:46:40;94670.09;;;4.85;100.00
38400;BME280;24180;42.676;23.320;2023-03-03T06:49:06;94642.25;;;4.67;100.00
38400;BME280;24180;42.676;23.320;2023-03-03T06:51:37;94642.03;;;4.70;100.00
38400;BME280;24180;42.676;23.320;2023-03-03T06:54:19;94643.28;;;4.89;100.00
38400;BME280;24180;42.676;23.320;2023-03-03T06:56:45;94650.47;;;4.84;100.00
38400;BME280;24180;42.676;23.320;2023-03-03T06:59:17;94650.25;;;4.87;100.00
38400;BME280;24180;42.676;23.320;2023-03-03T07:01:46;94678.91;;;5.15;100.00
38400;BME280;24180;42.676;23.320;2023-03-03T07:04:31;94669.22;;;5.08;100.00
38400;BME280;24180;42.676;23.320;2023-03-03T07:06:59;94658.03;;;5.20;100.00
38400;BME280;24180;42.676;23.320;2023-03-03T07:09:30;94657.06;;;5.10;100.00
38400;BME280;24180;42.676;23.320;2023-03-03T07:12:00;94659.69;;;5.21;100.00
38400;BME280;24180;42.676;23.320;2023-03-03T07:14:26;94634.44;;;4.93;100.00
38400;BME280;24180;42.676;23.320;2023-03-03T07:16:57;94685.72;;;5.28;100.00
38400;BME280;24180;42.676;23.320;2023-03-03T07:19:32;94674.03;;;5.24;100.00
38400;BME280;24180;42.676;23.320;2023-03-03T07:22:00;94682.56;;;5.24;100.00
38400;BME280;24180;42.676;23.320;2023-03-03T07:24:30;94653.97;;;5.17;100.00
38400;BME280;24180;42.676;23.320;2023-03-03T07:26:59;94651.53;;;5.27;100.00
38400;BME280;24180;42.676;23.320;2023-03-03T07:29:32;94653.25;;;5.27;100.00
38400;BME280;24180;42.676;23.320;2023-03-03T07:32:00;94680.25;;;5.32;100.00
38400;BME280;24180;42.676;23.320;2023-03-03T07:34:30;94652.13;;;5.42;100.00
38400;BME280;24180;42.676;23.320;2023-03-03T07:37:15;94650.41;;;5.53;100.00
38400;BME280;24180;42.676;23.320;2023-03-03T07:39:44;94674.91;;;5.69;100.00
38400;BME280;24180;42.676;23.320;2023-03-03T07:42:20;94669.53;;;5.72;100.00
38400;BME280;24180;42.676;23.320;2023-03-03T07:44:49;94645.84;;;5.57;100.00
38400;BME280;24180;42.676;23.320;2023-03-03T07:47:22;94677.72;;;5.65;100.00
38400;BME280;24180;42.676;23.320;2023-03-03T07:49:49;94629.97;;;5.41;100.00
38400;BME280;24180;42.676;23.320;2023-03-03T07:52:20;94650.38;;;5.42;100.00
38400;BME280;24180;42.676;23.320;2023-03-03T07:54:47;94648.28;;;5.58;100.00
38400;BME280;24180;42.676;23.320;2023-03-03T07:59:59;94678.91;;;5.95;100.00
38400;BME280;24180;42.676;23.320;2023-03-03T08:02:36;94679.84;;;6.05;100.00
38400;BME280;24180;42.676;23.320;2023-03-03T08:07:45;94648.16;;;5.60;100.00
38400;BME280;24180;42.676;23.320;2023-03-03T08:10:47;94668.53;;;5.96;100.00
38400;BME280;24180;42.676;23.320;2023-03-03T08:13:25;94678.44;;;6.12;100.00
38400;BME280;24180;42.676;23.320;2023-03-03T08:18:45;94674.34;;;6.21;100.00
38400;BME280;24180;42.676;23.320;2023-03-03T08:21:20;94671.88;;;6.19;100.00
38400;BME280;24180;42.676;23.320;2023-03-03T08:23:46;94650.63;;;6.06;100.00
38400;BME280;24180;42.676;23.320;2023-03-03T08:26:15;94672.22;;;6.15;100.00
38400;BME280;24180;42.676;23.320;2023-03-03T08:28:41;94670.47;;;6.15;100.00
38400;BME280;24180;42.676;23.320;2023-03-03T08:31:07;94667.22;;;6.24;100.00
38400;BME280;24180;42.676;23.320;2023-03-03T08:33:32;94658.31;;;6.28;100.00
38400;BME280;24180;42.676;23.320;2023-03-03T08:35:58;94655.25;;;6.34;100.00
38400;BME280;24180;42.676;23.320;2023-03-03T08:38:23;94644.75;;;6.26;100.00
38400;BME280;24180;42.676;23.320;2023-03-03T08:40:49;94665.56;;;6.23;100.00
38400;BME280;24180;42.676;23.320;2023-03-03T08:43:15;94670.34;;;6.28;100.00
38400;BME280;24180;42.676;23.320;2023-03-03T08:45:53;94660.84;;;6.39;100.00
38400;BME280;24180;42.676;23.320;2023-03-03T08:48:22;94672.97;;;6.59;100.00
38400;BME280;24180;42.676;23.320;2023-03-03T08:50:48;94658.59;;;6.57;100.00
38400;BME280;24180;42.676;23.320;2023-03-03T08:53:14;94657.06;;;6.66;100.00
38400;BME280;24180;42.676;23.320;2023-03-03T08:55:40;94668.94;;;6.78;100.00
38400;BME280;24180;42.676;23.320;2023-03-03T08:58:06;94665.28;;;6.80;100.00
38400;BME280;24180;42.676;23.320;2023-03-03T09:00:31;94666.69;;;6.84;100.00
38400;BME280;24180;42.676;23.320;2023-03-03T09:02:57;94663.00;;;6.98;100.00
38400;BME280;24180;42.676;23.320;2023-03-03T09:05:23;94662.38;;;7.05;100.00
38400;BME280;24180;42.676;23.320;2023-03-03T09:07:49;94647.06;;;7.04;100.00
38400;BME280;24180;42.676;23.320;2023-03-03T09:10:18;94647.97;;;6.82;100.00
38400;BME280;24180;42.676;23.320;2023-03-03T09:12:46;94663.09;;;6.76;100.00
38400;BME280;24180;42.676;23.320;2023-03-03T09:17:43;94671.09;;;7.35;100.00
38400;BME280;24180;42.676;23.320;2023-03-03T09:22:48;94665.13;;;7.34;100.00
38400;BME280;24180;42.676;23.320;2023-03-03T09:27:54;94665.84;;;7.36;100.00
38400;BME280;24180;42.676;23.320;2023-03-03T09:32:48;94655.16;;;7.41;100.00
38400;BME280;24180;42.676;23.320;2023-03-03T09:35:37;94654.78;;;7.45;100.00
38400;BME280;24180;42.676;23.320;2023-03-03T09:38:27;94678.81;;;7.56;100.00
38400;BME280;24180;42.676;23.320;2023-03-03T09:41:12;94687.94;;;7.60;100.00
38400;BME280;24180;42.676;23.320;2023-03-03T09:46:34;94680.47;;;7.15;100.00
38400;BME280;24180;42.676;23.320;2023-03-03T09:56:50;94668.16;;;7.19;100.00
38400;BME280;24180;42.676;23.320;2023-03-03T09:59:30;94647.06;;;7.04;100.00
38400;BME280;24180;42.676;23.320;2023-03-03T10:04:57;94674.13;;;7.19;100.00
38400;BME280;24180;42.676;23.320;2023-03-03T10:13:30;94645.78;;;7.19;100.00
38400;BME280;24180;42.676;23.320;2023-03-03T10:16:12;94668.09;;;7.09;100.00
38400;BME280;24180;42.676;23.320;2023-03-03T10:18:57;94635.72;;;6.75;100.00
38400;BME280;24180;42.676;23.320;2023-03-03T10:32:31;94652.31;;;7.23;100.00
38400;BME280;24180;42.676;23.320;2023-03-03T10:46:43;94647.34;;;7.11;100.00
38400;BME280;24180;42.676;23.320;2023-03-03T10:52:05;94646.75;;;6.97;100.00
38400;BME280;24180;42.676;23.320;2023-03-03T10:57:36;94593.78;;;6.31;100.00
38400;BME280;24180;42.676;23.320;2023-03-03T11:05:36;94634.53;;;6.79;100.00
38400;BME280;24180;42.676;23.320;2023-03-03T11:08:19;94629.88;;;6.73;100.00
38400;BME280;24180;42.676;23.320;2023-03-03T11:19:16;94614.16;;;6.55;100.00
38400;BME280;24180;42.676;23.320;2023-03-03T11:27:28;94578.56;;;6.39;100.00
38400;BME280;24180;42.676;23.320;2023-03-03T11:33:43;94613.00;;;6.16;100.00
38400;BME280;24180;42.676;23.320;2023-03-03T11:36:33;94604.97;;;5.98;100.00
38400;BME280;24180;42.676;23.320;2023-03-03T11:39:04;94582.19;;;5.72;100.00
38400;BME280;24180;42.676;23.320;2023-03-03T11:42:39;94608.38;;;5.88;100.00
38400;BME280;24180;42.676;23.320;2023-03-03T11:44:40;94595.03;;;5.94;100.00
38400;BME280;24180;42.676;23.320;2023-03-03T11:52:39;94596.66;;;6.06;100.00
38400;BME280;24180;42.676;23.320;2023-03-03T11:55:16;94578.88;;;6.14;100.00
38400;BME280;24180;42.676;23.320;2023-03-03T11:58:20;94577.31;;;6.34;100.00
38400;BME280;24180;42.676;23.320;2023-03-03T12:01:01;94586.47;;;6.47;100.00
38400;BME280;24180;42.676;23.320;2023-03-03T12:03:44;94593.78;;;6.31;100.00
38400;BME280;24180;42.676;23.320;2023-03-03T12:11:27;94584.97;;;6.45;100.00
38400;BME280;24180;42.676;23.320;2023-03-03T12:14:20;94579.47;;;6.49;100.00
38400;BME280;24180;42.676;23.320;2023-03-03T12:16:59;94556.69;;;6.45;100.00
38400;BME280;24180;42.676;23.320;2023-03-03T12:22:41;94590.94;;;6.98;100.00
38400;BME280;24180;42.676;23.320;2023-03-03T12:27:55;94547.84;;;6.38;100.00
38400;BME280;24180;42.676;23.320;2023-03-03T12:36:11;94591.53;;;6.70;100.00
38400;BME280;24180;42.676;23.320;2023-03-03T12:49:50;94591.03;;;6.12;100.00
38400;BME280;24180;42.676;23.320;2023-03-03T12:58:15;94583.03;;;5.72;100.00
38400;BME280;24180;42.676;23.320;2023-03-03T13:06:04;94574.75;;;5.35;100.00
38400;BME280;24180;42.676;23.320;2023-03-03T13:16:47;94538.41;;;5.62;100.00
38400;BME280;24180;42.676;23.320;2023-03-03T13:19:26;94509.13;;;5.64;100.00
38400;BME280;24180;42.676;23.320;2023-03-03T13:22:01;94526.81;;;6.01;100.00
38400;BME280;24180;42.676;23.320;2023-03-03T13:24:44;94541.66;;;5.97;100.00
38400;BME280;24180;42.676;23.320;2023-03-03T13:27:18;94520.41;;;5.84;100.00
38400;BME280;24180;42.676;23.320;2023-03-03T13:29:53;94523.53;;;5.99;100.00
38400;BME280;24180;42.676;23.320;2023-03-03T13:32:33;94517.44;;;5.57;100.00
38400;BME280;24180;42.676;23.320;2023-03-03T13:35:08;94523.47;;;5.67;100.00
38400;BME280;24180;42.676;23.320;2023-03-03T13:37:45;94476.47;;;5.44;100.00
38400;BME280;24180;42.676;23.320;2023-03-03T13:43:04;94527.91;;;5.54;100.00
38400;BME280;24180;42.676;23.320;2023-03-03T13:57:10;94549.16;;;5.67;100.00
38400;BME280;24180;42.676;23.320;2023-03-03T14:07:51;94553.03;;;5.61;100.00
38400;BME280;24180;42.676;23.320;2023-03-03T14:10:26;94540.41;;;5.58;100.00
38400;BME280;24180;42.676;23.320;2023-03-03T14:13:07;94542.41;;;5.55;100.00
38400;BME280;24180;42.676;23.320;2023-03-03T14:15:55;94539.69;;;5.79;100.00
38400;BME280;24180;42.676;23.320;2023-03-03T14:18:29;94534.09;;;5.74;100.00
38400;BME280;24180;42.676;23.320;2023-03-03T14:21:26;94514.00;;;5.68;100.00
38400;BME280;24180;42.676;23.320;2023-03-03T14:24:21;94496.97;;;5.78;100.00
38400;BME280;24180;42.676;23.320;2023-03-03T14:26:55;94531.00;;;6.02;100.00
38400;BME280;24180;42.676;23.320;2023-03-03T14:29:31;94514.66;;;6.03;100.00
38400;BME280;24180;42.676;23.320;2023-03-03T14:32:18;94502.50;;;6.05;100.00
38400;BME280;24180;42.676;23.320;2023-03-03T14:34:44;94530.41;;;6.41;100.00
38400;BME280;24180;42.676;23.320;2023-03-03T14:37:21;94531.53;;;6.48;100.00
38400;BME280;24180;42.676;23.320;2023-03-03T14:45:38;94510.50;;;6.43;100.00
38400;BME280;24180;42.676;23.320;2023-03-03T14:50:38;94532.78;;;6.54;100.00
38400;BME280;24180;42.676;23.320;2023-03-03T14:55:39;94513.44;;;6.39;100.00
38400;BME280;24180;42.676;23.320;2023-03-03T14:58:27;94526.31;;;6.59;100.00
38400;BME280;24180;42.676;23.320;2023-03-03T15:01:21;94534.22;;;6.68;100.00
38400;BME280;24180;42.676;23.320;2023-03-03T15:04:02;94516.34;;;6.45;100.00
38400;BME280;24180;42.676;23.320;2023-03-03T15:06:35;94526.69;;;6.34;100.00
38400;BME280;24180;42.676;23.320;2023-03-03T15:12:00;94516.00;;;6.18;100.00
38400;BME280;24180;42.676;23.320;2023-03-03T15:14:34;94531.59;;;6.37;100.00
38400;BME280;24180;42.676;23.320;2023-03-03T15:25:11;94505.13;;;6.26;100.00
38400;BME280;24180;42.676;23.320;2023-03-03T15:27:48;94518.97;;;6.34;100.00
38400;BME280;24180;42.676;23.320;2023-03-03T15:30:29;94533.09;;;6.40;100.00
38400;BME280;24180;42.676;23.320;2023-03-03T15:39:33;94543.44;;;6.29;100.00
38400;BME280;24180;42.676;23.320;2023-03-03T15:42:10;94526.41;;;6.17;100.00
38400;BME280;24180;42.676;23.320;2023-03-03T15:50:36;94537.88;;;6.13;100.00
38400;BME280;24180;42.676;23.320;2023-03-03T16:01:28;94542.94;;;5.92;100.00
38400;BME280;24180;42.676;23.320;2023-03-03T16:04:04;94531.28;;;5.88;100.00
38400;BME280;24180;42.676;23.320;2023-03-03T16:06:46;94517.25;;;5.81;100.00
38400;BME280;24180;42.676;23.320;2023-03-03T16:12:03;94534.06;;;5.85;100.00
38400;BME280;24180;42.676;23.320;2023-03-03T16:14:42;94567.69;;;6.04;100.00
38400;BME280;24180;42.676;23.320;2023-03-03T16:22:53;94565.63;;;5.76;100.00
38400;BME280;24180;42.676;23.320;2023-03-03T16:27:57;94571.31;;;5.90;100.00
38400;BME280;24180;42.676;23.320;2023-03-03T16:30:33;94563.97;;;5.75;100.00
38400;BME280;24180;42.676;23.320;2023-03-03T16:33:23;94568.53;;;5.71;100.00
38400;BME280;24180;42.676;23.320;2023-03-03T16:38:39;94579.34;;;5.86;100.00
38400;BME280;24180;42.676;23.320;2023-03-03T16:41:17;94577.19;;;5.81;100.00
38400;BME280;24180;42.676;23.320;2023-03-03T16:44:21;94591.06;;;5.90;100.00
38400;BME280;24180;42.676;23.320;2023-03-03T16:46:47;94565.72;;;5.74;100.00
38400;BME280;24180;42.676;23.320;2023-03-03T16:49:25;94569.00;;;5.76;100.00
38400;BME280;24180;42.676;23.320;2023-03-03T16:51:55;94605.06;;;5.86;100.00
38400;BME280;24180;42.676;23.320;2023-03-03T16:57:33;94609.03;;;5.79;100.00
38400;BME280;24180;42.676;23.320;2023-03-03T17:00:10;94580.69;;;5.69;100.00
38400;BME280;24180;42.676;23.320;2023-03-03T17:03:02;94582.91;;;5.51;100.00
38400;BME280;24180;42.676;23.320;2023-03-03T17:16:07;94600.19;;;5.60;100.00
38400;BME280;24180;42.676;23.320;2023-03-03T17:24:01;94608.72;;;5.72;100.00